sensor_id;sensor_type;location;lat;lon;timestamp;temperature;humidity
72126;SHT31;59999;51.676;22.650;2023-10-09T00:01:45;2.85;76.03
72126;SHT31;59999;51.676;22.650;2023-10-09T00:04:12;2.81;76.08
72126;SHT31;59999;51.676;22.650;2023-10-09T00:06:39;2.78;76.19
72126;SHT31;59999;51.676;22.650;2023-10-09T00:09:07;2.78;76.23
72126;SHT31;59999;51.676;22.650;2023-10-09T00:12:05;2.76;76.24
72126;SHT31;59999;51.676;22.650;2023-10-09T00:14:35;2.76;76.31
72126;SHT31;59999;51.676;22.650;2023-10-09T00:17:04;2.75;76.62
72126;SHT31;59999;51.676;22.650;2023-10-09T00:19:36;2.69;76.90
72126;SHT31;59999;51.676;22.650;2023-10-09T00:22:03;2.65;76.83
72126;SHT31;59999;51.676;22.650;2023-10-09T00:24:47;2.59;76.97
72126;SHT31;59999;51.676;22.650;2023-10-09T00:27:15;2.54;77.07
72126;SHT31;59999;51.676;22.650;2023-10-09T00:29:41;2.52;77.18
72126;SHT31;59999;51.676;22.650;2023-10-09T00:32:14;2.45;77.30
72126;SHT31;59999;51.676;22.650;2023-10-09T00:34:44;2.44;77.48
72126;SHT31;59999;51.676;22.650;2023-10-09T00:37:12;2.42;77.52
72126;SHT31;59999;51.676;22.650;2023-10-09T00:39:52;2.45;77.62
72126;SHT31;59999;51.676;22.650;2023-10-09T00:42:24;2.45;77.57
72126;SHT31;59999;51.676;22.650;2023-10-09T00:44:59;2.44;77.47
72126;SHT31;59999;51.676;22.650;2023-10-09T00:47:31;2.41;77.64
72126;SHT31;59999;51.676;22.650;2023-10-09T00:50:09;2.41;77.64
72126;SHT31;59999;51.676;22.650;2023-10-09T00:52:41;2.47;77.60
72126;SHT31;59999;51.676;22.650;2023-10-09T00:55:18;2.45;77.50
72126;SHT31;59999;51.676;22.650;2023-10-09T00:57:50;2.48;77.48
72126;SHT31;59999;51.676;22.650;2023-10-09T01:00:24;2.47;77.44
72126;SHT31;59999;51.676;22.650;2023-10-09T01:03:04;2.49;77.44
72126;SHT31;59999;51.676;22.650;2023-10-09T01:05:56;2.48;77.51
72126;SHT31;59999;51.676;22.650;2023-10-09T01:08:27;2.47;77.67
72126;SHT31;59999;51.676;22.650;2023-10-09T01:11:00;2.49;77.55
72126;SHT31;59999;51.676;22.650;2023-10-09T01:13:39;2.48;77.63
72126;SHT31;59999;51.676;22.650;2023-10-09T01:16:22;2.48;77.67
72126;SHT31;59999;51.676;22.650;2023-10-09T01:18:54;2.45;77.76
72126;SHT31;59999;51.676;22.650;2023-10-09T01:21:24;2.45;77.63
72126;SHT31;59999;51.676;22.650;2023-10-09T01:23:51;2.44;77.76
72126;SHT31;59999;51.676;22.650;2023-10-09T01:26:32;2.41;78.03
72126;SHT31;59999;51.676;22.650;2023-10-09T01:29:18;2.38;78.00
72126;SHT31;59999;51.676;22.650;2023-10-09T01:31:53;2.37;78.00
72126;SHT31;59999;51.676;22.650;2023-10-09T01:34:25;2.33;78.05
72126;SHT31;59999;51.676;22.650;2023-10-09T01:37:06;2.31;78.19
72126;SHT31;59999;51.676;22.650;2023-10-09T01:39:43;2.28;78.34
72126;SHT31;59999;51.676;22.650;2023-10-09T01:42:10;2.27;78.39
72126;SHT31;59999;51.676;22.650;2023-10-09T01:44:36;2.26;78.51
72126;SHT31;59999;51.676;22.650;2023-10-09T01:47:09;2.23;78.59
72126;SHT31;59999;51.676;22.650;2023-10-09T01:49:40;2.23;78.68
72126;SHT31;59999;51.676;22.650;2023-10-09T01:52:10;2.20;78.78
72126;SHT31;59999;51.676;22.650;2023-10-09T01:54:41;2.17;78.79
72126;SHT31;59999;51.676;22.650;2023-10-09T01:57:08;2.16;78.85
72126;SHT31;59999;51.676;22.650;2023-10-09T01:59:50;2.11;79.14
72126;SHT31;59999;51.676;22.650;2023-10-09T02:02:19;2.11;79.37
72126;SHT31;59999;51.676;22.650;2023-10-09T02:04:56;2.06;79.54
72126;SHT31;59999;51.676;22.650;2023-10-09T02:07:45;2.02;79.79
72126;SHT31;59999;51.676;22.650;2023-10-09T02:10:21;1.93;80.18
72126;SHT31;59999;51.676;22.650;2023-10-09T02:12:52;1.83;80.57
72126;SHT31;59999;51.676;22.650;2023-10-09T02:15:28;1.83;80.71
72126;SHT31;59999;51.676;22.650;2023-10-09T02:18:11;1.76;80.94
72126;SHT31;59999;51.676;22.650;2023-10-09T02:20:53;1.80;81.02
72126;SHT31;59999;51.676;22.650;2023-10-09T02:23:32;1.79;80.96
72126;SHT31;59999;51.676;22.650;2023-10-09T02:26:10;1.75;80.96
72126;SHT31;59999;51.676;22.650;2023-10-09T02:28:45;1.75;80.95
72126;SHT31;59999;51.676;22.650;2023-10-09T02:31:18;1.73;81.09
72126;SHT31;59999;51.676;22.650;2023-10-09T02:33:47;1.70;81.10
72126;SHT31;59999;51.676;22.650;2023-10-09T02:36:16;1.72;81.21
72126;SHT31;59999;51.676;22.650;2023-10-09T02:38:42;1.72;81.23
72126;SHT31;59999;51.676;22.650;2023-10-09T02:41:08;1.68;81.43
72126;SHT31;59999;51.676;22.650;2023-10-09T02:43:37;1.69;81.45
72126;SHT31;59999;51.676;22.650;2023-10-09T02:46:13;1.68;81.49
72126;SHT31;59999;51.676;22.650;2023-10-09T02:48:44;1.63;81.62
72126;SHT31;59999;51.676;22.650;2023-10-09T02:51:23;1.59;81.62
72126;SHT31;59999;51.676;22.650;2023-10-09T02:53:57;1.56;81.70
72126;SHT31;59999;51.676;22.650;2023-10-09T02:56:23;1.54;81.87
72126;SHT31;59999;51.676;22.650;2023-10-09T02:58:59;1.48;81.96
72126;SHT31;59999;51.676;22.650;2023-10-09T03:01:31;1.44;82.13
72126;SHT31;59999;51.676;22.650;2023-10-09T03:03:57;1.41;82.42
72126;SHT31;59999;51.676;22.650;2023-10-09T03:06:28;1.42;82.53
72126;SHT31;59999;51.676;22.650;2023-10-09T03:08:57;1.38;82.75
72126;SHT31;59999;51.676;22.650;2023-10-09T03:11:22;1.38;82.80
72126;SHT31;59999;51.676;22.650;2023-10-09T03:13:49;1.34;82.93
72126;SHT31;59999;51.676;22.650;2023-10-09T03:16:14;1.34;83.07
72126;SHT31;59999;51.676;22.650;2023-10-09T03:18:41;1.35;83.14
72126;SHT31;59999;51.676;22.650;2023-10-09T03:21:08;1.37;83.21
72126;SHT31;59999;51.676;22.650;2023-10-09T03:23:35;1.35;83.29
72126;SHT31;59999;51.676;22.650;2023-10-09T03:26:01;1.34;83.44
72126;SHT31;59999;51.676;22.650;2023-10-09T03:28:26;1.37;83.42
72126;SHT31;59999;51.676;22.650;2023-10-09T03:30:52;1.35;83.59
72126;SHT31;59999;51.676;22.650;2023-10-09T03:33:18;1.34;83.55
72126;SHT31;59999;51.676;22.650;2023-10-09T03:35:44;1.38;83.35
72126;SHT31;59999;51.676;22.650;2023-10-09T03:38:10;1.38;83.40
72126;SHT31;59999;51.676;22.650;2023-10-09T03:40:42;1.38;83.41
72126;SHT31;59999;51.676;22.650;2023-10-09T03:43:09;1.38;83.40
72126;SHT31;59999;51.676;22.650;2023-10-09T03:45:39;1.38;83.34
72126;SHT31;59999;51.676;22.650;2023-10-09T03:48:11;1.42;83.45
72126;SHT31;59999;51.676;22.650;2023-10-09T03:50:58;1.44;83.29
72126;SHT31;59999;51.676;22.650;2023-10-09T03:53:39;1.41;83.43
72126;SHT31;59999;51.676;22.650;2023-10-09T03:56:06;1.42;83.48
72126;SHT31;59999;51.676;22.650;2023-10-09T03:58:39;1.42;83.59
72126;SHT31;59999;51.676;22.650;2023-10-09T04:01:18;1.45;83.49
72126;SHT31;59999;51.676;22.650;2023-10-09T04:03:53;1.48;83.31
72126;SHT31;59999;51.676;22.650;2023-10-09T04:06:29;1.52;83.29
72126;SHT31;59999;51.676;22.650;2023-10-09T04:11:25;1.51;83.33
72126;SHT31;59999;51.676;22.650;2023-10-09T04:13:51;1.51;83.52
72126;SHT31;59999;51.676;22.650;2023-10-09T04:16:19;1.55;83.50
72126;SHT31;59999;51.676;22.650;2023-10-09T04:19:00;1.56;83.48
72126;SHT31;59999;51.676;22.650;2023-10-09T04:21:36;1.59;83.44
72126;SHT31;59999;51.676;22.650;2023-10-09T04:24:04;1.58;83.33
72126;SHT31;59999;51.676;22.650;2023-10-09T04:26:36;1.59;83.32
72126;SHT31;59999;51.676;22.650;2023-10-09T04:29:03;1.61;83.21
72126;SHT31;59999;51.676;22.650;2023-10-09T04:31:29;1.65;83.09
72126;SHT31;59999;51.676;22.650;2023-10-09T04:34:04;1.66;83.24
72126;SHT31;59999;51.676;22.650;2023-10-09T04:36:51;1.68;83.02
72126;SHT31;59999;51.676;22.650;2023-10-09T04:39:22;1.72;83.09
72126;SHT31;59999;51.676;22.650;2023-10-09T04:41:57;1.73;82.97
72126;SHT31;59999;51.676;22.650;2023-10-09T04:44:42;1.76;82.56
72126;SHT31;59999;51.676;22.650;2023-10-09T04:47:32;1.79;82.67
72126;SHT31;59999;51.676;22.650;2023-10-09T04:50:27;1.82;82.30
72126;SHT31;59999;51.676;22.650;2023-10-09T04:52:56;1.85;82.35
72126;SHT31;59999;51.676;22.650;2023-10-09T04:55:22;1.86;82.21
72126;SHT31;59999;51.676;22.650;2023-10-09T04:57:51;1.87;82.33
72126;SHT31;59999;51.676;22.650;2023-10-09T05:00:39;1.90;82.23
72126;SHT31;59999;51.676;22.650;2023-10-09T05:03:08;1.90;82.30
72126;SHT31;59999;51.676;22.650;2023-10-09T05:05:39;1.93;82.22
72126;SHT31;59999;51.676;22.650;2023-10-09T05:08:09;1.97;82.24
72126;SHT31;59999;51.676;22.650;2023-10-09T05:10:46;1.96;82.06
72126;SHT31;59999;51.676;22.650;2023-10-09T05:13:30;2.00;82.35
72126;SHT31;59999;51.676;22.650;2023-10-09T05:16:05;1.99;82.24
72126;SHT31;59999;51.676;22.650;2023-10-09T05:18:39;2.05;82.11
72126;SHT31;59999;51.676;22.650;2023-10-09T05:21:05;2.05;82.13
72126;SHT31;59999;51.676;22.650;2023-10-09T05:23:51;2.05;82.40
72126;SHT31;59999;51.676;22.650;2023-10-09T05:26:36;2.06;82.23
72126;SHT31;59999;51.676;22.650;2023-10-09T05:29:24;2.10;82.14
72126;SHT31;59999;51.676;22.650;2023-10-09T05:32:05;2.11;82.40
72126;SHT31;59999;51.676;22.650;2023-10-09T05:34:41;2.10;82.41
72126;SHT31;59999;51.676;22.650;2023-10-09T05:37:27;2.10;82.50
72126;SHT31;59999;51.676;22.650;2023-10-09T05:40:01;2.16;82.45
72126;SHT31;59999;51.676;22.650;2023-10-09T05:42:46;2.16;82.50
72126;SHT31;59999;51.676;22.650;2023-10-09T05:45:23;2.18;82.28
72126;SHT31;59999;51.676;22.650;2023-10-09T05:48:07;2.21;82.14
72126;SHT31;59999;51.676;22.650;2023-10-09T05:50:39;2.21;82.11
72126;SHT31;59999;51.676;22.650;2023-10-09T05:53:24;2.24;82.12
72126;SHT31;59999;51.676;22.650;2023-10-09T05:56:23;2.28;82.12
72126;SHT31;59999;51.676;22.650;2023-10-09T05:58:57;2.31;82.19
72126;SHT31;59999;51.676;22.650;2023-10-09T06:01:32;2.34;81.54
72126;SHT31;59999;51.676;22.650;2023-10-09T06:04:16;2.36;81.94
72126;SHT31;59999;51.676;22.650;2023-10-09T06:06:43;2.37;81.95
72126;SHT31;59999;51.676;22.650;2023-10-09T06:09:20;2.40;81.83
72126;SHT31;59999;51.676;22.650;2023-10-09T06:11:49;2.42;81.48
72126;SHT31;59999;51.676;22.650;2023-10-09T06:14:19;2.48;81.31
72126;SHT31;59999;51.676;22.650;2023-10-09T06:17:11;2.48;80.94
72126;SHT31;59999;51.676;22.650;2023-10-09T06:19:37;2.57;80.96
72126;SHT31;59999;51.676;22.650;2023-10-09T06:22:10;2.64;80.50
72126;SHT31;59999;51.676;22.650;2023-10-09T06:24:54;2.68;80.34
72126;SHT31;59999;51.676;22.650;2023-10-09T06:27:21;2.74;80.35
72126;SHT31;59999;51.676;22.650;2023-10-09T06:29:57;2.84;79.98
72126;SHT31;59999;51.676;22.650;2023-10-09T06:32:39;2.91;79.76
72126;SHT31;59999;51.676;22.650;2023-10-09T06:35:15;2.96;79.79
72126;SHT31;59999;51.676;22.650;2023-10-09T06:37:57;3.06;79.37
72126;SHT31;59999;51.676;22.650;2023-10-09T06:40:30;3.12;79.15
72126;SHT31;59999;51.676;22.650;2023-10-09T06:43:03;3.24;79.11
72126;SHT31;59999;51.676;22.650;2023-10-09T06:45:50;3.37;78.97
72126;SHT31;59999;51.676;22.650;2023-10-09T06:48:34;3.48;78.71
72126;SHT31;59999;51.676;22.650;2023-10-09T06:51:04;3.54;79.06
72126;SHT31;59999;51.676;22.650;2023-10-09T06:53:48;3.61;79.01
72126;SHT31;59999;51.676;22.650;2023-10-09T06:56:21;3.67;79.15
72126;SHT31;59999;51.676;22.650;2023-10-09T06:58:56;3.73;79.02
72126;SHT31;59999;51.676;22.650;2023-10-09T07:01:30;3.81;78.30
72126;SHT31;59999;51.676;22.650;2023-10-09T07:04:08;3.88;78.61
72126;SHT31;59999;51.676;22.650;2023-10-09T07:06:53;3.95;76.84
72126;SHT31;59999;51.676;22.650;2023-10-09T07:09:18;4.03;76.95
72126;SHT31;59999;51.676;22.650;2023-10-09T07:11:54;4.07;77.16
72126;SHT31;59999;51.676;22.650;2023-10-09T07:14:21;4.16;76.98
72126;SHT31;59999;51.676;22.650;2023-10-09T07:16:57;4.26;76.72
72126;SHT31;59999;51.676;22.650;2023-10-09T07:19:23;4.36;76.11
72126;SHT31;59999;51.676;22.650;2023-10-09T07:22:13;4.50;76.40
72126;SHT31;59999;51.676;22.650;2023-10-09T07:24:57;4.64;75.62
72126;SHT31;59999;51.676;22.650;2023-10-09T07:27:30;4.73;74.33
72126;SHT31;59999;51.676;22.650;2023-10-09T07:30:18;4.84;74.92
72126;SHT31;59999;51.676;22.650;2023-10-09T07:38:11;5.25;73.22
72126;SHT31;59999;51.676;22.650;2023-10-09T07:40:38;5.28;73.16
72126;SHT31;59999;51.676;22.650;2023-10-09T07:43:22;5.42;73.46
72126;SHT31;59999;51.676;22.650;2023-10-09T07:46:07;5.51;72.35
72126;SHT31;59999;51.676;22.650;2023-10-09T07:48:52;5.51;71.42
72126;SHT31;59999;51.676;22.650;2023-10-09T07:51:22;5.56;70.96
72126;SHT31;59999;51.676;22.650;2023-10-09T07:53:58;5.57;71.50
72126;SHT31;59999;51.676;22.650;2023-10-09T07:56:34;5.66;72.07
72126;SHT31;59999;51.676;22.650;2023-10-09T07:59:13;5.75;70.57
72126;SHT31;59999;51.676;22.650;2023-10-09T08:01:40;5.84;70.43
72126;SHT31;59999;51.676;22.650;2023-10-09T08:04:20;6.05;70.89
72126;SHT31;59999;51.676;22.650;2023-10-09T08:07:07;6.19;70.24
72126;SHT31;59999;51.676;22.650;2023-10-09T08:09:33;6.22;70.35
72126;SHT31;59999;51.676;22.650;2023-10-09T08:12:15;6.25;70.89
72126;SHT31;59999;51.676;22.650;2023-10-09T08:14:59;6.38;71.25
72126;SHT31;59999;51.676;22.650;2023-10-09T08:20:17;6.49;69.78
72126;SHT31;59999;51.676;22.650;2023-10-09T08:22:43;6.50;69.60
72126;SHT31;59999;51.676;22.650;2023-10-09T08:25:10;6.62;69.37
72126;SHT31;59999;51.676;22.650;2023-10-09T08:27:56;6.60;67.39
72126;SHT31;59999;51.676;22.650;2023-10-09T08:30:24;6.57;69.11
72126;SHT31;59999;51.676;22.650;2023-10-09T08:32:50;6.54;68.23
72126;SHT31;59999;51.676;22.650;2023-10-09T08:35:31;6.62;69.27
72126;SHT31;59999;51.676;22.650;2023-10-09T08:38:02;6.76;69.40
72126;SHT31;59999;51.676;22.650;2023-10-09T08:40:41;6.83;68.99
72126;SHT31;59999;51.676;22.650;2023-10-09T08:43:13;6.96;68.50
72126;SHT31;59999;51.676;22.650;2023-10-09T08:45:46;7.05;68.29
72126;SHT31;59999;51.676;22.650;2023-10-09T08:48:13;7.07;67.68
72126;SHT31;59999;51.676;22.650;2023-10-09T08:50:49;7.08;68.25
72126;SHT31;59999;51.676;22.650;2023-10-09T08:53:22;7.11;67.94
72126;SHT31;59999;51.676;22.650;2023-10-09T08:55:49;7.11;68.23
72126;SHT31;59999;51.676;22.650;2023-10-09T08:58:17;7.08;68.92
72126;SHT31;59999;51.676;22.650;2023-10-09T09:00:57;7.11;68.80
72126;SHT31;59999;51.676;22.650;2023-10-09T09:03:26;7.09;67.31
72126;SHT31;59999;51.676;22.650;2023-10-09T09:05:59;7.03;67.78
72126;SHT31;59999;51.676;22.650;2023-10-09T09:08:30;7.07;67.83
72126;SHT31;59999;51.676;22.650;2023-10-09T09:11:12;7.08;68.24
72126;SHT31;59999;51.676;22.650;2023-10-09T09:13:47;7.09;67.30
72126;SHT31;59999;51.676;22.650;2023-10-09T09:16:23;7.04;68.25
72126;SHT31;59999;51.676;22.650;2023-10-09T09:18:58;7.04;67.69
72126;SHT31;59999;51.676;22.650;2023-10-09T09:21:32;7.08;68.52
72126;SHT31;59999;51.676;22.650;2023-10-09T09:24:04;7.21;66.85
72126;SHT31;59999;51.676;22.650;2023-10-09T09:27:08;7.27;66.18
72126;SHT31;59999;51.676;22.650;2023-10-09T09:29:57;7.32;66.03
72126;SHT31;59999;51.676;22.650;2023-10-09T09:32:30;7.34;66.01
72126;SHT31;59999;51.676;22.650;2023-10-09T09:35:04;7.31;65.29
72126;SHT31;59999;51.676;22.650;2023-10-09T09:37:33;7.35;65.43
72126;SHT31;59999;51.676;22.650;2023-10-09T09:40:08;7.45;65.64
72126;SHT31;59999;51.676;22.650;2023-10-09T09:42:55;7.54;65.40
72126;SHT31;59999;51.676;22.650;2023-10-09T09:45:22;7.65;65.94
72126;SHT31;59999;51.676;22.650;2023-10-09T09:47:50;7.70;65.69
72126;SHT31;59999;51.676;22.650;2023-10-09T09:50:18;7.82;64.58
72126;SHT31;59999;51.676;22.650;2023-10-09T09:52:55;7.83;64.70
72126;SHT31;59999;51.676;22.650;2023-10-09T09:55:34;7.91;65.26
72126;SHT31;59999;51.676;22.650;2023-10-09T09:58:12;7.91;63.11
72126;SHT31;59999;51.676;22.650;2023-10-09T10:00:44;7.94;63.05
72126;SHT31;59999;51.676;22.650;2023-10-09T10:03:32;7.96;63.08
72126;SHT31;59999;51.676;22.650;2023-10-09T10:06:00;8.08;63.00
72126;SHT31;59999;51.676;22.650;2023-10-09T10:08:35;8.13;62.48
72126;SHT31;59999;51.676;22.650;2023-10-09T10:11:01;8.18;62.17
72126;SHT31;59999;51.676;22.650;2023-10-09T10:21:19;8.71;60.00
72126;SHT31;59999;51.676;22.650;2023-10-09T10:24:01;8.89;60.48
72126;SHT31;59999;51.676;22.650;2023-10-09T10:26:36;9.14;60.31
72126;SHT31;59999;51.676;22.650;2023-10-09T10:29:20;9.45;60.08
72126;SHT31;59999;51.676;22.650;2023-10-09T10:34:22;9.71;59.58
72126;SHT31;59999;51.676;22.650;2023-10-09T10:36:53;9.78;59.48
72126;SHT31;59999;51.676;22.650;2023-10-09T10:39:24;9.86;59.32
72126;SHT31;59999;51.676;22.650;2023-10-09T10:42:08;9.92;58.85
72126;SHT31;59999;51.676;22.650;2023-10-09T10:44:35;10.02;58.52
72126;SHT31;59999;51.676;22.650;2023-10-09T10:47:09;10.08;58.98
72126;SHT31;59999;51.676;22.650;2023-10-09T10:49:58;10.24;57.58
72126;SHT31;59999;51.676;22.650;2023-10-09T10:52:25;10.32;55.37
72126;SHT31;59999;51.676;22.650;2023-10-09T10:55:14;10.47;56.60
72126;SHT31;59999;51.676;22.650;2023-10-09T10:57:55;10.56;54.24
72126;SHT31;59999;51.676;22.650;2023-10-09T11:00:29;10.68;54.95
72126;SHT31;59999;51.676;22.650;2023-10-09T11:03:20;10.81;55.39
72126;SHT31;59999;51.676;22.650;2023-10-09T11:06:04;10.85;53.99
72126;SHT31;59999;51.676;22.650;2023-10-09T11:08:47;10.79;49.37
72126;SHT31;59999;51.676;22.650;2023-10-09T11:11:34;10.88;51.86
72126;SHT31;59999;51.676;22.650;2023-10-09T11:14:10;10.82;52.64
72126;SHT31;59999;51.676;22.650;2023-10-09T11:16:59;10.78;51.86
72126;SHT31;59999;51.676;22.650;2023-10-09T11:19:28;10.78;52.11
72126;SHT31;59999;51.676;22.650;2023-10-09T11:21:58;10.74;51.49
72126;SHT31;59999;51.676;22.650;2023-10-09T11:24:47;10.65;50.14
72126;SHT31;59999;51.676;22.650;2023-10-09T11:27:25;10.68;51.27
72126;SHT31;59999;51.676;22.650;2023-10-09T11:29:54;10.75;51.66
72126;SHT31;59999;51.676;22.650;2023-10-09T11:32:21;10.65;52.01
72126;SHT31;59999;51.676;22.650;2023-10-09T11:35:09;10.60;49.92
72126;SHT31;59999;51.676;22.650;2023-10-09T11:37:35;10.54;50.35
72126;SHT31;59999;51.676;22.650;2023-10-09T11:40:05;10.34;50.64
72126;SHT31;59999;51.676;22.650;2023-10-09T11:42:49;10.29;51.49
72126;SHT31;59999;51.676;22.650;2023-10-09T11:45:26;10.27;51.69
72126;SHT31;59999;51.676;22.650;2023-10-09T11:47:57;10.30;51.15
72126;SHT31;59999;51.676;22.650;2023-10-09T11:50:43;10.30;50.51
72126;SHT31;59999;51.676;22.650;2023-10-09T11:53:14;10.21;50.76
72126;SHT31;59999;51.676;22.650;2023-10-09T11:55:50;10.20;51.19
72126;SHT31;59999;51.676;22.650;2023-10-09T11:58:18;10.20;52.20
72126;SHT31;59999;51.676;22.650;2023-10-09T12:00:54;10.20;51.82
72126;SHT31;59999;51.676;22.650;2023-10-09T12:03:27;10.20;52.25
72126;SHT31;59999;51.676;22.650;2023-10-09T12:06:00;10.17;51.59
72126;SHT31;59999;51.676;22.650;2023-10-09T12:08:38;10.13;53.13
72126;SHT31;59999;51.676;22.650;2023-10-09T12:11:07;10.12;53.62
72126;SHT31;59999;51.676;22.650;2023-10-09T12:13:37;10.09;53.76
72126;SHT31;59999;51.676;22.650;2023-10-09T12:16:09;10.12;54.22
72126;SHT31;59999;51.676;22.650;2023-10-09T12:18:35;10.12;54.04
72126;SHT31;59999;51.676;22.650;2023-10-09T12:21:02;10.06;53.55
72126;SHT31;59999;51.676;22.650;2023-10-09T12:23:30;9.99;55.14
72126;SHT31;59999;51.676;22.650;2023-10-09T12:26:02;9.92;56.03
72126;SHT31;59999;51.676;22.650;2023-10-09T12:28:28;9.81;56.67
72126;SHT31;59999;51.676;22.650;2023-10-09T12:30:55;9.68;56.60
72126;SHT31;59999;51.676;22.650;2023-10-09T12:33:28;9.62;57.11
72126;SHT31;59999;51.676;22.650;2023-10-09T12:35:55;9.57;55.81
72126;SHT31;59999;51.676;22.650;2023-10-09T12:38:29;9.50;56.55
72126;SHT31;59999;51.676;22.650;2023-10-09T12:41:05;9.44;57.04
72126;SHT31;59999;51.676;22.650;2023-10-09T12:43:43;9.41;56.88
72126;SHT31;59999;51.676;22.650;2023-10-09T12:46:09;9.30;57.08
72126;SHT31;59999;51.676;22.650;2023-10-09T12:48:34;9.26;58.31
72126;SHT31;59999;51.676;22.650;2023-10-09T12:51:02;9.17;57.56
72126;SHT31;59999;51.676;22.650;2023-10-09T12:53:34;9.17;57.01
72126;SHT31;59999;51.676;22.650;2023-10-09T12:56:00;9.16;57.30
72126;SHT31;59999;51.676;22.650;2023-10-09T12:58:25;9.14;57.81
72126;SHT31;59999;51.676;22.650;2023-10-09T13:00:52;9.11;58.60
72126;SHT31;59999;51.676;22.650;2023-10-09T13:03:18;9.07;59.57
72126;SHT31;59999;51.676;22.650;2023-10-09T13:05:47;9.09;60.26
72126;SHT31;59999;51.676;22.650;2023-10-09T13:08:24;9.03;61.52
72126;SHT31;59999;51.676;22.650;2023-10-09T13:10:57;9.03;58.98
72126;SHT31;59999;51.676;22.650;2023-10-09T13:13:30;9.07;59.98
72126;SHT31;59999;51.676;22.650;2023-10-09T13:16:28;9.07;60.26
72126;SHT31;59999;51.676;22.650;2023-10-09T13:18:55;9.02;60.08
72126;SHT31;59999;51.676;22.650;2023-10-09T13:21:26;8.99;60.94
72126;SHT31;59999;51.676;22.650;2023-10-09T13:23:52;8.97;61.56
72126;SHT31;59999;51.676;22.650;2023-10-09T13:26:21;8.94;61.84
72126;SHT31;59999;51.676;22.650;2023-10-09T13:28:57;8.97;62.16
72126;SHT31;59999;51.676;22.650;2023-10-09T13:31:24;8.99;62.73
72126;SHT31;59999;51.676;22.650;2023-10-09T13:33:54;8.99;63.47
72126;SHT31;59999;51.676;22.650;2023-10-09T13:36:22;8.99;63.15
72126;SHT31;59999;51.676;22.650;2023-10-09T13:38:57;9.00;63.60
72126;SHT31;59999;51.676;22.650;2023-10-09T13:41:23;8.97;64.05
72126;SHT31;59999;51.676;22.650;2023-10-09T13:43:55;8.97;64.32
72126;SHT31;59999;51.676;22.650;2023-10-09T13:46:23;8.89;64.03
72126;SHT31;59999;51.676;22.650;2023-10-09T13:48:49;8.82;63.90
72126;SHT31;59999;51.676;22.650;2023-10-09T13:51:18;8.82;63.42
72126;SHT31;59999;51.676;22.650;2023-10-09T13:53:45;8.80;62.84
72126;SHT31;59999;51.676;22.650;2023-10-09T13:56:19;8.73;63.76
72126;SHT31;59999;51.676;22.650;2023-10-09T13:58:49;8.69;64.17
72126;SHT31;59999;51.676;22.650;2023-10-09T14:01:20;8.65;64.44
72126;SHT31;59999;51.676;22.650;2023-10-09T14:03:57;8.68;64.61
72126;SHT31;59999;51.676;22.650;2023-10-09T14:06:23;8.65;65.23
72126;SHT31;59999;51.676;22.650;2023-10-09T14:08:59;8.62;65.66
72126;SHT31;59999;51.676;22.650;2023-10-09T14:11:27;8.68;66.32
72126;SHT31;59999;51.676;22.650;2023-10-09T14:13:53;8.63;67.01
72126;SHT31;59999;51.676;22.650;2023-10-09T14:16:19;8.58;66.69
72126;SHT31;59999;51.676;22.650;2023-10-09T14:18:54;8.48;66.92
72126;SHT31;59999;51.676;22.650;2023-10-09T14:21:24;8.40;67.69
72126;SHT31;59999;51.676;22.650;2023-10-09T14:23:54;8.34;67.90
72126;SHT31;59999;51.676;22.650;2023-10-09T14:26:26;8.27;68.17
72126;SHT31;59999;51.676;22.650;2023-10-09T14:28:53;8.17;68.52
72126;SHT31;59999;51.676;22.650;2023-10-09T14:31:23;8.05;69.20
72126;SHT31;59999;51.676;22.650;2023-10-09T14:33:54;8.00;69.50
72126;SHT31;59999;51.676;22.650;2023-10-09T14:36:21;7.94;70.21
72126;SHT31;59999;51.676;22.650;2023-10-09T14:38:59;7.84;70.56
72126;SHT31;59999;51.676;22.650;2023-10-09T14:41:25;7.80;71.09
72126;SHT31;59999;51.676;22.650;2023-10-09T14:43:52;7.84;71.42
72126;SHT31;59999;51.676;22.650;2023-10-09T14:46:19;7.94;71.42
72126;SHT31;59999;51.676;22.650;2023-10-09T14:48:55;8.03;71.09
72126;SHT31;59999;51.676;22.650;2023-10-09T14:51:22;8.17;71.27
72126;SHT31;59999;51.676;22.650;2023-10-09T14:53:54;8.33;70.93
72126;SHT31;59999;51.676;22.650;2023-10-09T14:56:26;8.51;70.37
72126;SHT31;59999;51.676;22.650;2023-10-09T14:58:58;8.63;69.59
72126;SHT31;59999;51.676;22.650;2023-10-09T15:01:30;8.76;69.41
72126;SHT31;59999;51.676;22.650;2023-10-09T15:04:00;8.90;69.15
72126;SHT31;59999;51.676;22.650;2023-10-09T15:06:29;9.03;68.71
72126;SHT31;59999;51.676;22.650;2023-10-09T15:08:59;9.07;68.84
72126;SHT31;59999;51.676;22.650;2023-10-09T15:11:34;9.17;68.65
72126;SHT31;59999;51.676;22.650;2023-10-09T15:13:59;9.21;68.51
72126;SHT31;59999;51.676;22.650;2023-10-09T15:16:26;9.13;68.72
72126;SHT31;59999;51.676;22.650;2023-10-09T15:18:56;8.83;69.78
72126;SHT31;59999;51.676;22.650;2023-10-09T15:21:28;8.49;70.73
72126;SHT31;59999;51.676;22.650;2023-10-09T15:23:57;8.18;71.91
72126;SHT31;59999;51.676;22.650;2023-10-09T15:26:25;7.93;72.75
72126;SHT31;59999;51.676;22.650;2023-10-09T15:28:51;7.67;73.46
72126;SHT31;59999;51.676;22.650;2023-10-09T15:31:17;7.49;73.82
72126;SHT31;59999;51.676;22.650;2023-10-09T15:33:44;7.34;74.24
72126;SHT31;59999;51.676;22.650;2023-10-09T15:36:14;7.18;74.93
72126;SHT31;59999;51.676;22.650;2023-10-09T15:38:42;7.03;75.47
72126;SHT31;59999;51.676;22.650;2023-10-09T16:11:57;5.71;80.13
72126;SHT31;59999;51.676;22.650;2023-10-09T16:14:23;5.69;80.37
72126;SHT31;59999;51.676;22.650;2023-10-09T16:16:49;5.63;80.46
72126;SHT31;59999;51.676;22.650;2023-10-09T16:19:16;5.56;80.74
72126;SHT31;59999;51.676;22.650;2023-10-09T16:21:41;5.51;80.76
72126;SHT31;59999;51.676;22.650;2023-10-09T16:24:08;5.44;81.25
72126;SHT31;59999;51.676;22.650;2023-10-09T16:26:36;5.40;81.24
72126;SHT31;59999;51.676;22.650;2023-10-09T16:29:06;5.30;81.61
72126;SHT31;59999;51.676;22.650;2023-10-09T16:31:35;5.28;81.56
72126;SHT31;59999;51.676;22.650;2023-10-09T16:34:05;5.22;82.04
72126;SHT31;59999;51.676;22.650;2023-10-09T16:36:36;5.15;82.12
72126;SHT31;59999;51.676;22.650;2023-10-09T16:39:05;5.09;82.08
72126;SHT31;59999;51.676;22.650;2023-10-09T16:41:46;5.01;82.20
72126;SHT31;59999;51.676;22.650;2023-10-09T16:44:12;4.91;81.99
72126;SHT31;59999;51.676;22.650;2023-10-09T16:46:42;4.80;82.26
72126;SHT31;59999;51.676;22.650;2023-10-09T16:49:11;4.75;82.78
72126;SHT31;59999;51.676;22.650;2023-10-09T16:51:41;4.68;83.01
72126;SHT31;59999;51.676;22.650;2023-10-09T16:54:09;4.64;83.35
72126;SHT31;59999;51.676;22.650;2023-10-09T16:56:40;4.57;83.54
72126;SHT31;59999;51.676;22.650;2023-10-09T16:59:11;4.50;83.74
72126;SHT31;59999;51.676;22.650;2023-10-09T17:01:41;4.47;84.02